< < Back
Terminal Aerodrome Forecast


Current Version              Previous Versions:   1  2  3  4  5  6  7  8  9  

Terminal Aerodrome Forecast

901
FTUS42 KGSP 022330
TAFCLT
TAF
KCLT 022330Z 0300/0324 03006KT P6SM FEW050 BKN250
     FM030800 05006KT P6SM OVC020
     FM031500 07004KT 6SM -RA OVC010
     FM032200 12003KT P6SM OVC008=



Latest METAR

337
SAUS70 KWBC 030700 RRH
MTRCLT
METAR KCLT 030652Z 03006KT 10SM OVC030 09/M08 A3031 RMK AO2 SLP263
T00941078 $


USA.gov is the U.S. government's official web portal to all federal, state and local government web resources and services.